OKTOM LZIB-LZDV
Flight info
| Callsign | OKTOM |
|---|---|
| Flight time | 0h 10m |
| Altitude | |
| Route | |
| Aircraft |
Departure
| Time | 2026-04-29 18:16 |
|---|---|
| Airport | M. R. Štefánik Airport (LZIB) |
Arrival
| Time | 2026-04-29 18:27 |
|---|---|
| Airport | Dubová Airstrip (LZDV) |
| Time | Latitude | Longitude | Altitude | Speed | Heading |
|---|---|---|---|---|---|
| 2026-04-29 18:03 | 48.16459 | 17.19744 | 428 ft | 0 kts | 212° |
| 2026-04-29 18:12 | 48.16458 | 17.19743 | 428 ft | 2 kts | 209° |
| 2026-04-29 18:12 | 48.16405 | 17.19797 | 428 ft | 15 kts | 119° |
| 2026-04-29 18:13 | 48.16331 | 17.19896 | 428 ft | 12 kts | 194° |
| 2026-04-29 18:13 | 48.16268 | 17.19811 | 428 ft | 12 kts | 215° |
| 2026-04-29 18:13 | 48.16192 | 17.19796 | 423 ft | 12 kts | 154° |
| 2026-04-29 18:13 | 48.16160 | 17.19837 | 429 ft | 0 kts | 135° |
| 2026-04-29 18:14 | 48.16132 | 17.19886 | 425 ft | 11 kts | 129° |
| 2026-04-29 18:14 | 48.16095 | 17.19963 | 429 ft | 5 kts | 82° |
| 2026-04-29 18:14 | 48.16117 | 17.20000 | 423 ft | 1 kts | 42° |
| 2026-04-29 18:15 | 48.16121 | 17.20005 | 424 ft | 8 kts | 43° |
| 2026-04-29 18:15 | 48.16286 | 17.20239 | 426 ft | 53 kts | 44° |
| 2026-04-29 18:16 | 48.16568 | 17.20697 | 560 ft | 61 kts | 36° |
| 2026-04-29 18:16 | 48.16873 | 17.21114 | 761 ft | 60 kts | 37° |
| 2026-04-29 18:16 | 48.17198 | 17.21557 | 902 ft | 64 kts | 34° |
| 2026-04-29 18:16 | 48.17522 | 17.22012 | 1086 ft | 62 kts | 38° |
| 2026-04-29 18:17 | 48.17800 | 17.22466 | 1323 ft | 59 kts | 44° |
| 2026-04-29 18:17 | 48.18077 | 17.22859 | 1582 ft | 56 kts | 22° |
| 2026-04-29 18:17 | 48.18453 | 17.22824 | 1839 ft | 60 kts | 359° |
| 2026-04-29 18:17 | 48.18899 | 17.22676 | 2035 ft | 66 kts | 354° |
| 2026-04-29 18:18 | 48.19369 | 17.22547 | 2100 ft | 72 kts | 7° |
| 2026-04-29 18:18 | 48.19856 | 17.22616 | 2228 ft | 69 kts | 14° |
| 2026-04-29 18:18 | 48.20298 | 17.22721 | 2447 ft | 59 kts | 15° |
| 2026-04-29 18:18 | 48.20701 | 17.22825 | 2570 ft | 60 kts | 14° |
| 2026-04-29 18:19 | 48.21135 | 17.22946 | 2718 ft | 67 kts | 17° |
| 2026-04-29 18:19 | 48.21585 | 17.23195 | 2886 ft | 68 kts | 25° |
| 2026-04-29 18:19 | 48.22025 | 17.23555 | 3078 ft | 74 kts | 32° |
| 2026-04-29 18:19 | 48.22502 | 17.23897 | 3298 ft | 76 kts | 21° |
| 2026-04-29 18:20 | 48.23018 | 17.24214 | 3246 ft | 79 kts | 24° |
| 2026-04-29 18:20 | 48.23498 | 17.24523 | 2999 ft | 72 kts | 26° |
| 2026-04-29 18:20 | 48.23953 | 17.24839 | 2909 ft | 73 kts | 24° |
| 2026-04-29 18:20 | 48.24405 | 17.25143 | 2856 ft | 69 kts | 25° |
| 2026-04-29 18:21 | 48.24854 | 17.25465 | 2806 ft | 72 kts | 29° |
| 2026-04-29 18:21 | 48.25287 | 17.25829 | 2803 ft | 75 kts | 25° |
| 2026-04-29 18:21 | 48.25745 | 17.26151 | 2731 ft | 73 kts | 26° |
| 2026-04-29 18:21 | 48.26205 | 17.26518 | 2761 ft | 74 kts | 25° |
| 2026-04-29 18:22 | 48.26664 | 17.26828 | 2747 ft | 72 kts | 26° |
| 2026-04-29 18:22 | 48.27128 | 17.27184 | 2496 ft | 75 kts | 29° |
| 2026-04-29 18:22 | 48.27598 | 17.27565 | 2269 ft | 76 kts | 30° |
| 2026-04-29 18:22 | 48.28020 | 17.27997 | 2086 ft | 73 kts | 32° |
| 2026-04-29 18:23 | 48.28314 | 17.28220 | 2009 ft | 68 kts | 26° |
| 2026-04-29 18:23 | 48.28740 | 17.28537 | 1775 ft | 72 kts | 26° |
| 2026-04-29 18:23 | 48.29169 | 17.28875 | 1594 ft | 67 kts | 24° |
| 2026-04-29 18:23 | 48.29724 | 17.29287 | 1431 ft | 66 kts | 27° |
| 2026-04-29 18:24 | 48.30100 | 17.29651 | 1353 ft | 63 kts | 32° |
| 2026-04-29 18:24 | 48.30442 | 17.30070 | 1207 ft | 66 kts | 39° |
| 2026-04-29 18:24 | 48.30671 | 17.30372 | 1174 ft | 66 kts | 37° |
| 2026-04-29 18:24 | 48.30942 | 17.30979 | 1141 ft | 75 kts | 55° |
| 2026-04-29 18:25 | 48.31158 | 17.31723 | 1103 ft | 79 kts | 62° |
| 2026-04-29 18:25 | 48.31316 | 17.32517 | 1072 ft | 81 kts | 63° |
| 2026-04-29 18:25 | 48.31500 | 17.33319 | 1059 ft | 81 kts | 59° |
| 2026-04-29 18:25 | 48.31746 | 17.34013 | 1093 ft | 73 kts | 48° |
| 2026-04-29 18:26 | 48.32058 | 17.34672 | 1077 ft | 80 kts | 49° |
| 2026-04-29 18:26 | 48.32383 | 17.35349 | 1147 ft | 80 kts | 46° |
| 2026-04-29 18:26 | 48.32701 | 17.35963 | 1168 ft | 71 kts | 43° |
| 2026-04-29 18:26 | 48.33031 | 17.36507 | 1149 ft | 69 kts | 32° |
| 2026-04-29 18:27 | 48.33440 | 17.36739 | 1008 ft | 60 kts | 15° |
| 2026-04-29 18:27 | 48.33844 | 17.36758 | 884 ft | 56 kts | 345° |
| 2026-04-29 18:27 | 48.34129 | 17.36450 | 780 ft | 45 kts | 330° |
| 2026-04-29 18:27 | 48.34334 | 17.36149 | 690 ft | 38 kts | 327° |
| 2026-04-29 18:28 | 48.34524 | 17.35875 | 642 ft | 38 kts | 332° |
| 2026-04-29 18:28 | 48.34683 | 17.35661 | 630 ft | 17 kts | 317° |
| 2026-04-29 18:28 | 48.34758 | 17.35550 | 627 ft | 14 kts | 318° |
| 2026-04-29 18:28 | 48.34813 | 17.35469 | 626 ft | 8 kts | 309° |
| 2026-04-29 18:29 | 48.34847 | 17.35475 | 626 ft | 5 kts | 46° |
| 2026-04-29 18:29 | 48.34856 | 17.35490 | 626 ft | 0 kts | 53° |
| 2026-04-29 18:29 | 48.34853 | 17.35500 | 630 ft | 4 kts | 153° |
| 2026-04-29 18:30 | 48.34844 | 17.35480 | 626 ft | 0 kts | 263° |
| 2026-04-29 18:30 | 48.34841 | 17.35451 | 628 ft | 6 kts | 278° |
| 2026-04-29 18:30 | 48.34868 | 17.35403 | 625 ft | 8 kts | 309° |
| 2026-04-29 18:30 | 48.34888 | 17.35368 | 625 ft | 0 kts | 268° |
| 2026-04-29 18:31 | 48.34849 | 17.35412 | 630 ft | 25 kts | 133° |
| 2026-04-29 18:31 | 48.34597 | 17.35773 | 628 ft | 73 kts | 134° |
| 2026-04-29 18:31 | 48.34192 | 17.36304 | 798 ft | 78 kts | 129° |
| 2026-04-29 18:31 | 48.33760 | 17.36751 | 1020 ft | 85 kts | 162° |
| 2026-04-29 18:32 | 48.33269 | 17.36415 | 1177 ft | 82 kts | 255° |
| 2026-04-29 18:32 | 48.33038 | 17.34708 | 1339 ft | 84 kts | 265° |
| 2026-04-29 18:32 | 48.32863 | 17.33872 | 1464 ft | 85 kts | 256° |
| 2026-04-29 18:33 | 48.32627 | 17.32981 | 1487 ft | 96 kts | 260° |
| 2026-04-29 18:33 | 48.32331 | 17.32062 | 1590 ft | 101 kts | 241° |
| 2026-04-29 18:33 | 48.31887 | 17.31211 | 1705 ft | 103 kts | 232° |
| 2026-04-29 18:33 | 48.31347 | 17.30443 | 1795 ft | 111 kts | 223° |
| 2026-04-29 18:34 | 48.30741 | 17.29735 | 1854 ft | 112 kts | 221° |
| 2026-04-29 18:34 | 48.30328 | 17.29254 | 1833 ft | 115 kts | 221° |
| 2026-04-29 18:34 | 48.29459 | 17.28314 | 1809 ft | 116 kts | 217° |
| 2026-04-29 18:34 | 48.28809 | 17.27608 | 1722 ft | 114 kts | 221° |
| 2026-04-29 18:35 | 48.28181 | 17.26860 | 1641 ft | 117 kts | 224° |
| 2026-04-29 18:35 | 48.27571 | 17.26047 | 1591 ft | 116 kts | 228° |
| 2026-04-29 18:35 | 48.26986 | 17.25222 | 1564 ft | 113 kts | 230° |
| 2026-04-29 18:35 | 48.26404 | 17.24400 | 1577 ft | 119 kts | 224° |
| 2026-04-29 18:36 | 48.25763 | 17.23600 | 1702 ft | 116 kts | 228° |
| 2026-04-29 18:36 | 48.25172 | 17.22777 | 1869 ft | 115 kts | 231° |
| 2026-04-29 18:36 | 48.24597 | 17.21852 | 2000 ft | 123 kts | 234° |
| 2026-04-29 18:36 | 48.24069 | 17.20927 | 2228 ft | 118 kts | 236° |
| 2026-04-29 18:37 | 48.23487 | 17.19892 | 2101 ft | 134 kts | 231° |
| 2026-04-29 18:37 | 48.22823 | 17.18845 | 2051 ft | 138 kts | 229° |
| 2026-04-29 18:37 | 48.22138 | 17.17882 | 2050 ft | 137 kts | 225° |
| 2026-04-29 18:37 | 48.21416 | 17.16929 | 1953 ft | 139 kts | 224° |
| 2026-04-29 18:38 | 48.20689 | 17.15960 | 1882 ft | 137 kts | 224° |
| 2026-04-29 18:38 | 48.19952 | 17.15054 | 1807 ft | 138 kts | 225° |
| 2026-04-29 18:38 | 48.19251 | 17.14080 | 1830 ft | 135 kts | 227° |
| 2026-04-29 18:38 | 48.18542 | 17.13138 | 1792 ft | 137 kts | 224° |
| 2026-04-29 18:39 | 48.17787 | 17.12253 | 1765 ft | 137 kts | 220° |
| 2026-04-29 18:39 | 48.17014 | 17.11407 | 1755 ft | 137 kts | 215° |
| 2026-04-29 18:39 | 48.16204 | 17.10658 | 1744 ft | 135 kts | 208° |
| 2026-04-29 18:39 | 48.15331 | 17.10122 | 1742 ft | 135 kts | 187° |
| 2026-04-29 18:40 | 48.14578 | 17.10499 | 1912 ft | 105 kts | 115° |
| 2026-04-29 18:40 | 48.14526 | 17.11414 | 1923 ft | 85 kts | 57° |
| 2026-04-29 18:40 | 48.14825 | 17.12179 | 1933 ft | 83 kts | 39° |
| 2026-04-29 18:40 | 48.15368 | 17.12449 | 1924 ft | 87 kts | 12° |
| 2026-04-29 18:41 | 48.16682 | 17.14065 | 1557 ft | 116 kts | 87° |
| 2026-04-29 18:41 | 48.16233 | 17.15103 | 1480 ft | 127 kts | 142° |
| 2026-04-29 18:42 | 48.15389 | 17.15179 | 1412 ft | 124 kts | 205° |
| 2026-04-29 18:42 | 48.14882 | 17.14237 | 1328 ft | 110 kts | 250° |
| 2026-04-29 18:42 | 48.14533 | 17.13216 | 1307 ft | 113 kts | 253° |
| 2026-04-29 18:42 | 48.14211 | 17.12124 | 1186 ft | 110 kts | 269° |
| 2026-04-29 18:43 | 48.14430 | 17.11320 | 1325 ft | 70 kts | 348° |
| 2026-04-29 18:43 | 48.14841 | 17.11605 | 1278 ft | 81 kts | 52° |
| 2026-04-29 18:43 | 48.14861 | 17.12552 | 1198 ft | 104 kts | 98° |
| 2026-04-29 18:43 | 48.14367 | 17.13306 | 1321 ft | 111 kts | 157° |
| 2026-04-29 18:44 | 48.13628 | 17.13063 | 1381 ft | 110 kts | 227° |
| 2026-04-29 18:44 | 48.13362 | 17.12103 | 1375 ft | 93 kts | 291° |
| 2026-04-29 18:44 | 48.13716 | 17.11659 | 1515 ft | 62 kts | 18° |
| 2026-04-29 18:44 | 48.13853 | 17.12268 | 1585 ft | 84 kts | 101° |
| 2026-04-29 18:45 | 48.13291 | 17.12710 | 1678 ft | 105 kts | 185° |
| 2026-04-29 18:45 | 48.12772 | 17.11995 | 1811 ft | 101 kts | 264° |
| 2026-04-29 18:45 | 48.12941 | 17.11233 | 1956 ft | 71 kts | 343° |
| 2026-04-29 18:45 | 48.13364 | 17.11427 | 1933 ft | 76 kts | 55° |
| 2026-04-29 18:46 | 48.13285 | 17.12289 | 1897 ft | 98 kts | 103° |
| 2026-04-29 18:46 | 48.12942 | 17.13199 | 1884 ft | 100 kts | 109° |
| 2026-04-29 18:46 | 48.12504 | 17.14062 | 1898 ft | 107 kts | 121° |
| 2026-04-29 18:46 | 48.11982 | 17.14854 | 1862 ft | 104 kts | 117° |
| 2026-04-29 18:47 | 48.11547 | 17.15740 | 1787 ft | 103 kts | 112° |
| 2026-04-29 18:47 | 48.11256 | 17.16622 | 1849 ft | 93 kts | 97° |
| 2026-04-29 18:47 | 48.11081 | 17.17525 | 1879 ft | 94 kts | 95° |
| 2026-04-29 18:47 | 48.10914 | 17.18443 | 1891 ft | 86 kts | 80° |
| 2026-04-29 18:48 | 48.11043 | 17.19268 | 1894 ft | 78 kts | 58° |
| 2026-04-29 18:48 | 48.11295 | 17.19970 | 1927 ft | 68 kts | 51° |
| 2026-04-29 18:48 | 48.11542 | 17.20655 | 1737 ft | 88 kts | 56° |
| 2026-04-29 18:48 | 48.11830 | 17.21509 | 1608 ft | 90 kts | 55° |
| 2026-04-29 18:49 | 48.12127 | 17.22346 | 1498 ft | 93 kts | 52° |
| 2026-04-29 18:49 | 48.12503 | 17.23071 | 1438 ft | 86 kts | 45° |
| 2026-04-29 18:49 | 48.12867 | 17.23829 | 1328 ft | 88 kts | 41° |
| 2026-04-29 18:49 | 48.13393 | 17.24247 | 1313 ft | 89 kts | 17° |
| 2026-04-29 18:50 | 48.13988 | 17.24423 | 1263 ft | 90 kts | 7° |
| 2026-04-29 18:50 | 48.14622 | 17.24366 | 1042 ft | 95 kts | 350° |
| 2026-04-29 18:50 | 48.15292 | 17.23894 | 633 ft | 113 kts | 324° |
| 2026-04-29 18:50 | 48.15843 | 17.23091 | 466 ft | 107 kts | 322° |
| 2026-04-29 18:51 | 48.16334 | 17.22313 | 479 ft | 93 kts | 331° |
| 2026-04-29 18:51 | 48.16709 | 17.21747 | 441 ft | 64 kts | 315° |
| 2026-04-29 18:51 | 48.16914 | 17.21400 | 426 ft | 25 kts | 322° |
| 2026-04-29 18:51 | 48.17030 | 17.21239 | 417 ft | 20 kts | 312° |
| 2026-04-29 18:52 | 48.17102 | 17.21126 | 422 ft | 11 kts | 308° |
| 2026-04-29 18:52 | 48.17125 | 17.21031 | 422 ft | 9 kts | 254° |
| 2026-04-29 18:52 | 48.17088 | 17.20960 | 424 ft | 8 kts | 225° |
| 2026-04-29 18:52 | 48.17063 | 17.20920 | 424 ft | 0 kts | 225° |
| 2026-04-29 18:53 | 48.16983 | 17.20790 | 425 ft | 27 kts | 232° |
| 2026-04-29 18:53 | 48.16880 | 17.20616 | 422 ft | 18 kts | 222° |
| 2026-04-29 18:53 | 48.16789 | 17.20482 | 426 ft | 20 kts | 224° |
| 2026-04-29 18:54 | 48.16677 | 17.20331 | 427 ft | 22 kts | 220° |
| 2026-04-29 18:54 | 48.16572 | 17.20201 | 426 ft | 20 kts | 218° |
| 2026-04-29 18:54 | 48.16458 | 17.20054 | 426 ft | 22 kts | 225° |
| 2026-04-29 18:54 | 48.16374 | 17.19895 | 428 ft | 20 kts | 282° |